sensor_id;sensor_type;location;lat;lon;timestamp;P1;durP1;ratioP1;P2;durP2;ratioP2
3843;SDS011;1937;51.444;6.484;2023-09-19T00:00:21;11.03;;;3.60;;
3843;SDS011;1937;51.444;6.484;2023-09-19T00:02:53;5.90;;;3.10;;
3843;SDS011;1937;51.444;6.484;2023-09-19T00:05:24;25.67;;;4.10;;
3843;SDS011;1937;51.444;6.484;2023-09-19T00:07:53;11.27;;;3.33;;
3843;SDS011;1937;51.444;6.484;2023-09-19T00:10:20;7.07;;;2.87;;
3843;SDS011;1937;51.444;6.484;2023-09-19T00:12:48;7.37;;;2.93;;
3843;SDS011;1937;51.444;6.484;2023-09-19T00:15:14;8.87;;;2.90;;
3843;SDS011;1937;51.444;6.484;2023-09-19T00:17:44;6.00;;;3.23;;
3843;SDS011;1937;51.444;6.484;2023-09-19T00:20:11;10.77;;;3.67;;
3843;SDS011;1937;51.444;6.484;2023-09-19T00:22:39;10.70;;;3.27;;
3843;SDS011;1937;51.444;6.484;2023-09-19T00:25:07;8.40;;;2.40;;
3843;SDS011;1937;51.444;6.484;2023-09-19T00:27:34;6.73;;;2.70;;
3843;SDS011;1937;51.444;6.484;2023-09-19T00:30:05;7.87;;;2.70;;
3843;SDS011;1937;51.444;6.484;2023-09-19T00:32:39;12.30;;;2.90;;
3843;SDS011;1937;51.444;6.484;2023-09-19T00:35:07;11.30;;;2.70;;
3843;SDS011;1937;51.444;6.484;2023-09-19T00:37:35;9.73;;;3.20;;
3843;SDS011;1937;51.444;6.484;2023-09-19T00:40:02;14.20;;;2.77;;
3843;SDS011;1937;51.444;6.484;2023-09-19T00:42:30;8.63;;;3.20;;
3843;SDS011;1937;51.444;6.484;2023-09-19T00:44:58;8.10;;;2.77;;
3843;SDS011;1937;51.444;6.484;2023-09-19T00:47:28;15.47;;;3.40;;
3843;SDS011;1937;51.444;6.484;2023-09-19T00:49:55;11.60;;;3.30;;
3843;SDS011;1937;51.444;6.484;2023-09-19T00:52:25;13.70;;;2.97;;
3843;SDS011;1937;51.444;6.484;2023-09-19T00:54:53;7.70;;;2.47;;
3843;SDS011;1937;51.444;6.484;2023-09-19T00:57:20;16.03;;;3.20;;
3843;SDS011;1937;51.444;6.484;2023-09-19T00:59:48;6.83;;;2.40;;
3843;SDS011;1937;51.444;6.484;2023-09-19T01:02:19;10.73;;;3.53;;
3843;SDS011;1937;51.444;6.484;2023-09-19T01:04:47;6.97;;;2.57;;
3843;SDS011;1937;51.444;6.484;2023-09-19T01:07:13;14.10;;;3.23;;
3843;SDS011;1937;51.444;6.484;2023-09-19T01:09:42;9.57;;;3.63;;
3843;SDS011;1937;51.444;6.484;2023-09-19T01:12:09;9.30;;;3.30;;
3843;SDS011;1937;51.444;6.484;2023-09-19T01:14:41;3.93;;;2.60;;
3843;SDS011;1937;51.444;6.484;2023-09-19T01:17:17;9.70;;;3.20;;
3843;SDS011;1937;51.444;6.484;2023-09-19T01:22:48;7.20;;;2.57;;
3843;SDS011;1937;51.444;6.484;2023-09-19T01:25:38;3.77;;;2.30;;
3843;SDS011;1937;51.444;6.484;2023-09-19T01:28:20;5.57;;;2.80;;
3843;SDS011;1937;51.444;6.484;2023-09-19T01:31:03;12.37;;;3.17;;
3843;SDS011;1937;51.444;6.484;2023-09-19T01:36:29;11.03;;;3.20;;
3843;SDS011;1937;51.444;6.484;2023-09-19T01:38:59;6.23;;;2.77;;
3843;SDS011;1937;51.444;6.484;2023-09-19T01:44:24;13.40;;;3.13;;
3843;SDS011;1937;51.444;6.484;2023-09-19T01:47:04;5.60;;;3.17;;
3843;SDS011;1937;51.444;6.484;2023-09-19T01:49:42;5.40;;;2.57;;
3843;SDS011;1937;51.444;6.484;2023-09-19T01:52:16;9.27;;;3.00;;
3843;SDS011;1937;51.444;6.484;2023-09-19T01:54:48;6.80;;;3.40;;
3843;SDS011;1937;51.444;6.484;2023-09-19T01:57:28;12.10;;;4.07;;
3843;SDS011;1937;51.444;6.484;2023-09-19T02:00:00;6.90;;;2.90;;
3843;SDS011;1937;51.444;6.484;2023-09-19T02:02:33;5.97;;;3.23;;
3843;SDS011;1937;51.444;6.484;2023-09-19T02:05:02;11.20;;;4.03;;
3843;SDS011;1937;51.444;6.484;2023-09-19T02:07:30;9.27;;;2.67;;
3843;SDS011;1937;51.444;6.484;2023-09-19T02:09:57;5.73;;;2.83;;
3843;SDS011;1937;51.444;6.484;2023-09-19T02:12:25;8.63;;;3.07;;
3843;SDS011;1937;51.444;6.484;2023-09-19T02:14:51;7.40;;;2.53;;
3843;SDS011;1937;51.444;6.484;2023-09-19T02:17:18;6.83;;;2.60;;
3843;SDS011;1937;51.444;6.484;2023-09-19T02:19:46;8.80;;;3.90;;
3843;SDS011;1937;51.444;6.484;2023-09-19T02:22:12;12.90;;;3.90;;
3843;SDS011;1937;51.444;6.484;2023-09-19T02:24:41;8.90;;;2.90;;
3843;SDS011;1937;51.444;6.484;2023-09-19T02:27:11;9.00;;;2.40;;
3843;SDS011;1937;51.444;6.484;2023-09-19T02:29:40;13.50;;;2.70;;
3843;SDS011;1937;51.444;6.484;2023-09-19T02:32:06;5.00;;;2.33;;
3843;SDS011;1937;51.444;6.484;2023-09-19T02:34:34;13.37;;;3.00;;
3843;SDS011;1937;51.444;6.484;2023-09-19T02:37:03;11.30;;;2.73;;
3843;SDS011;1937;51.444;6.484;2023-09-19T02:39:31;7.33;;;3.10;;
3843;SDS011;1937;51.444;6.484;2023-09-19T02:41:58;10.00;;;3.20;;
3843;SDS011;1937;51.444;6.484;2023-09-19T02:44:24;8.27;;;2.70;;
3843;SDS011;1937;51.444;6.484;2023-09-19T02:46:51;10.87;;;3.30;;
3843;SDS011;1937;51.444;6.484;2023-09-19T02:49:18;21.33;;;2.80;;
3843;SDS011;1937;51.444;6.484;2023-09-19T02:51:45;5.23;;;2.73;;
3843;SDS011;1937;51.444;6.484;2023-09-19T02:54:14;12.03;;;2.90;;
3843;SDS011;1937;51.444;6.484;2023-09-19T02:56:41;10.67;;;3.40;;
3843;SDS011;1937;51.444;6.484;2023-09-19T02:59:08;10.20;;;2.67;;
3843;SDS011;1937;51.444;6.484;2023-09-19T03:01:35;11.50;;;3.33;;
3843;SDS011;1937;51.444;6.484;2023-09-19T03:04:02;6.37;;;2.40;;
3843;SDS011;1937;51.444;6.484;2023-09-19T03:06:31;7.37;;;2.50;;
3843;SDS011;1937;51.444;6.484;2023-09-19T03:08:58;6.50;;;2.70;;
3843;SDS011;1937;51.444;6.484;2023-09-19T03:11:26;4.77;;;2.57;;
3843;SDS011;1937;51.444;6.484;2023-09-19T03:13:53;10.63;;;2.60;;
3843;SDS011;1937;51.444;6.484;2023-09-19T03:16:20;3.53;;;2.20;;
3843;SDS011;1937;51.444;6.484;2023-09-19T03:18:47;7.80;;;3.27;;
3843;SDS011;1937;51.444;6.484;2023-09-19T03:21:14;6.73;;;2.83;;
3843;SDS011;1937;51.444;6.484;2023-09-19T03:23:42;12.27;;;2.40;;
3843;SDS011;1937;51.444;6.484;2023-09-19T03:26:10;4.20;;;2.33;;
3843;SDS011;1937;51.444;6.484;2023-09-19T03:28:39;6.33;;;2.60;;
3843;SDS011;1937;51.444;6.484;2023-09-19T03:31:06;8.67;;;2.77;;
3843;SDS011;1937;51.444;6.484;2023-09-19T03:33:33;10.33;;;3.23;;
3843;SDS011;1937;51.444;6.484;2023-09-19T03:36:00;7.90;;;3.10;;
3843;SDS011;1937;51.444;6.484;2023-09-19T03:38:29;9.90;;;3.10;;
3843;SDS011;1937;51.444;6.484;2023-09-19T03:40:57;10.17;;;2.53;;
3843;SDS011;1937;51.444;6.484;2023-09-19T03:43:24;7.57;;;2.63;;
3843;SDS011;1937;51.444;6.484;2023-09-19T03:45:52;8.70;;;2.87;;
3843;SDS011;1937;51.444;6.484;2023-09-19T03:48:19;18.87;;;2.67;;
3843;SDS011;1937;51.444;6.484;2023-09-19T03:50:46;9.17;;;3.27;;
3843;SDS011;1937;51.444;6.484;2023-09-19T03:53:13;6.20;;;2.40;;
3843;SDS011;1937;51.444;6.484;2023-09-19T03:55:39;9.17;;;4.03;;
3843;SDS011;1937;51.444;6.484;2023-09-19T03:58:06;9.40;;;3.00;;
3843;SDS011;1937;51.444;6.484;2023-09-19T04:00:33;5.10;;;2.60;;
3843;SDS011;1937;51.444;6.484;2023-09-19T04:03:01;11.13;;;3.07;;
3843;SDS011;1937;51.444;6.484;2023-09-19T04:05:30;8.73;;;3.00;;
3843;SDS011;1937;51.444;6.484;2023-09-19T04:07:57;14.77;;;2.93;;
3843;SDS011;1937;51.444;6.484;2023-09-19T04:10:24;10.53;;;2.80;;
3843;SDS011;1937;51.444;6.484;2023-09-19T04:12:51;7.70;;;2.90;;
3843;SDS011;1937;51.444;6.484;2023-09-19T04:15:19;12.40;;;2.93;;
3843;SDS011;1937;51.444;6.484;2023-09-19T04:17:47;6.97;;;2.73;;
3843;SDS011;1937;51.444;6.484;2023-09-19T04:20:15;7.93;;;3.23;;
3843;SDS011;1937;51.444;6.484;2023-09-19T04:22:43;7.00;;;3.07;;
3843;SDS011;1937;51.444;6.484;2023-09-19T04:25:09;13.20;;;2.80;;
3843;SDS011;1937;51.444;6.484;2023-09-19T04:27:36;6.07;;;2.43;;
3843;SDS011;1937;51.444;6.484;2023-09-19T04:30:03;8.60;;;3.40;;
3843;SDS011;1937;51.444;6.484;2023-09-19T04:32:35;9.07;;;2.97;;
3843;SDS011;1937;51.444;6.484;2023-09-19T04:35:03;7.50;;;2.90;;
3843;SDS011;1937;51.444;6.484;2023-09-19T04:37:34;5.10;;;2.83;;
3843;SDS011;1937;51.444;6.484;2023-09-19T04:40:03;12.73;;;3.67;;
3843;SDS011;1937;51.444;6.484;2023-09-19T04:42:31;5.97;;;2.57;;
3843;SDS011;1937;51.444;6.484;2023-09-19T04:44:58;9.53;;;2.90;;
3843;SDS011;1937;51.444;6.484;2023-09-19T04:47:25;13.23;;;2.80;;
3843;SDS011;1937;51.444;6.484;2023-09-19T04:49:51;10.83;;;2.70;;
3843;SDS011;1937;51.444;6.484;2023-09-19T04:52:18;4.80;;;3.43;;
3843;SDS011;1937;51.444;6.484;2023-09-19T04:54:46;11.97;;;3.90;;
3843;SDS011;1937;51.444;6.484;2023-09-19T04:57:13;10.63;;;2.60;;
3843;SDS011;1937;51.444;6.484;2023-09-19T04:59:40;7.87;;;3.00;;
3843;SDS011;1937;51.444;6.484;2023-09-19T05:02:06;10.40;;;3.37;;
3843;SDS011;1937;51.444;6.484;2023-09-19T05:04:34;11.80;;;2.97;;
3843;SDS011;1937;51.444;6.484;2023-09-19T05:07:01;9.87;;;4.10;;
3843;SDS011;1937;51.444;6.484;2023-09-19T05:09:28;5.57;;;2.80;;
3843;SDS011;1937;51.444;6.484;2023-09-19T05:11:56;7.20;;;3.17;;
3843;SDS011;1937;51.444;6.484;2023-09-19T05:14:23;7.20;;;3.13;;
3843;SDS011;1937;51.444;6.484;2023-09-19T05:16:50;11.63;;;3.40;;
3843;SDS011;1937;51.444;6.484;2023-09-19T05:19:16;8.83;;;2.60;;
3843;SDS011;1937;51.444;6.484;2023-09-19T05:21:43;11.63;;;3.40;;
3843;SDS011;1937;51.444;6.484;2023-09-19T05:24:09;10.90;;;3.30;;
3843;SDS011;1937;51.444;6.484;2023-09-19T05:26:37;8.20;;;2.60;;
3843;SDS011;1937;51.444;6.484;2023-09-19T05:29:06;5.97;;;2.57;;
3843;SDS011;1937;51.444;6.484;2023-09-19T05:31:33;8.80;;;3.20;;
3843;SDS011;1937;51.444;6.484;2023-09-19T05:34:01;12.40;;;3.70;;
3843;SDS011;1937;51.444;6.484;2023-09-19T05:36:28;13.30;;;3.43;;
3843;SDS011;1937;51.444;6.484;2023-09-19T05:38:55;7.07;;;3.10;;
3843;SDS011;1937;51.444;6.484;2023-09-19T05:41:22;12.50;;;2.83;;
3843;SDS011;1937;51.444;6.484;2023-09-19T05:43:48;6.03;;;2.63;;
3843;SDS011;1937;51.444;6.484;2023-09-19T05:46:17;9.10;;;3.10;;
3843;SDS011;1937;51.444;6.484;2023-09-19T05:48:44;20.13;;;3.20;;
3843;SDS011;1937;51.444;6.484;2023-09-19T05:51:14;9.17;;;3.27;;
3843;SDS011;1937;51.444;6.484;2023-09-19T05:53:45;7.57;;;2.80;;
3843;SDS011;1937;51.444;6.484;2023-09-19T05:56:13;9.03;;;2.60;;
3843;SDS011;1937;51.444;6.484;2023-09-19T05:58:40;13.63;;;4.03;;
3843;SDS011;1937;51.444;6.484;2023-09-19T06:01:09;11.03;;;2.80;;
3843;SDS011;1937;51.444;6.484;2023-09-19T06:03:37;7.23;;;3.10;;
3843;SDS011;1937;51.444;6.484;2023-09-19T06:06:03;8.83;;;2.83;;
3843;SDS011;1937;51.444;6.484;2023-09-19T06:08:31;7.77;;;2.47;;
3843;SDS011;1937;51.444;6.484;2023-09-19T06:10:58;17.20;;;2.97;;
3843;SDS011;1937;51.444;6.484;2023-09-19T06:13:27;6.30;;;2.67;;
3843;SDS011;1937;51.444;6.484;2023-09-19T06:15:54;10.77;;;2.87;;
3843;SDS011;1937;51.444;6.484;2023-09-19T06:18:21;9.40;;;2.53;;
3843;SDS011;1937;51.444;6.484;2023-09-19T06:20:52;11.50;;;3.20;;
3843;SDS011;1937;51.444;6.484;2023-09-19T06:23:19;7.23;;;3.13;;
3843;SDS011;1937;51.444;6.484;2023-09-19T06:25:47;8.03;;;2.70;;
3843;SDS011;1937;51.444;6.484;2023-09-19T06:28:14;7.50;;;3.27;;
3843;SDS011;1937;51.444;6.484;2023-09-19T06:30:43;9.67;;;2.90;;
3843;SDS011;1937;51.444;6.484;2023-09-19T06:33:10;12.20;;;3.00;;
3843;SDS011;1937;51.444;6.484;2023-09-19T06:35:37;11.43;;;3.40;;
3843;SDS011;1937;51.444;6.484;2023-09-19T06:38:05;18.23;;;3.50;;
3843;SDS011;1937;51.444;6.484;2023-09-19T06:40:33;9.30;;;2.77;;
3843;SDS011;1937;51.444;6.484;2023-09-19T06:43:00;7.03;;;3.70;;
3843;SDS011;1937;51.444;6.484;2023-09-19T06:45:29;10.33;;;3.07;;
3843;SDS011;1937;51.444;6.484;2023-09-19T06:47:57;9.93;;;3.20;;
3843;SDS011;1937;51.444;6.484;2023-09-19T06:50:25;9.67;;;2.80;;
3843;SDS011;1937;51.444;6.484;2023-09-19T06:52:52;12.27;;;2.40;;
3843;SDS011;1937;51.444;6.484;2023-09-19T06:55:23;12.00;;;2.87;;
3843;SDS011;1937;51.444;6.484;2023-09-19T06:57:53;11.77;;;3.50;;
3843;SDS011;1937;51.444;6.484;2023-09-19T07:00:20;9.53;;;2.77;;
3843;SDS011;1937;51.444;6.484;2023-09-19T07:02:57;9.53;;;3.23;;
3843;SDS011;1937;51.444;6.484;2023-09-19T07:05:26;12.57;;;3.90;;
3843;SDS011;1937;51.444;6.484;2023-09-19T07:07:53;5.43;;;2.63;;
3843;SDS011;1937;51.444;6.484;2023-09-19T07:10:20;12.03;;;3.60;;
3843;SDS011;1937;51.444;6.484;2023-09-19T07:12:54;11.20;;;2.90;;
3843;SDS011;1937;51.444;6.484;2023-09-19T07:15:21;11.17;;;3.27;;
3843;SDS011;1937;51.444;6.484;2023-09-19T07:17:50;8.47;;;2.33;;
3843;SDS011;1937;51.444;6.484;2023-09-19T07:20:16;10.73;;;3.10;;
3843;SDS011;1937;51.444;6.484;2023-09-19T07:22:43;12.03;;;2.80;;
3843;SDS011;1937;51.444;6.484;2023-09-19T07:25:10;13.00;;;4.10;;
3843;SDS011;1937;51.444;6.484;2023-09-19T07:27:39;8.60;;;2.60;;
3843;SDS011;1937;51.444;6.484;2023-09-19T07:30:07;8.27;;;2.90;;
3843;SDS011;1937;51.444;6.484;2023-09-19T07:32:34;8.47;;;2.60;;
3843;SDS011;1937;51.444;6.484;2023-09-19T07:35:02;8.40;;;2.80;;
3843;SDS011;1937;51.444;6.484;2023-09-19T07:37:29;11.87;;;3.03;;
3843;SDS011;1937;51.444;6.484;2023-09-19T07:39:56;13.73;;;2.90;;
3843;SDS011;1937;51.444;6.484;2023-09-19T07:42:22;9.53;;;3.10;;
3843;SDS011;1937;51.444;6.484;2023-09-19T07:44:50;8.30;;;2.80;;
3843;SDS011;1937;51.444;6.484;2023-09-19T07:47:22;13.50;;;3.40;;
3843;SDS011;1937;51.444;6.484;2023-09-19T07:49:48;10.43;;;2.73;;
3843;SDS011;1937;51.444;6.484;2023-09-19T07:52:15;14.33;;;2.50;;
3843;SDS011;1937;51.444;6.484;2023-09-19T07:54:42;6.10;;;3.30;;
3843;SDS011;1937;51.444;6.484;2023-09-19T07:57:09;12.53;;;2.70;;
3843;SDS011;1937;51.444;6.484;2023-09-19T07:59:37;11.80;;;2.60;;
3843;SDS011;1937;51.444;6.484;2023-09-19T08:02:04;12.87;;;2.90;;
3843;SDS011;1937;51.444;6.484;2023-09-19T08:04:34;10.20;;;4.13;;
3843;SDS011;1937;51.444;6.484;2023-09-19T08:07:01;6.23;;;2.40;;
3843;SDS011;1937;51.444;6.484;2023-09-19T08:09:29;11.07;;;2.60;;
3843;SDS011;1937;51.444;6.484;2023-09-19T08:11:58;10.20;;;3.30;;
3843;SDS011;1937;51.444;6.484;2023-09-19T08:14:27;7.10;;;2.70;;
3843;SDS011;1937;51.444;6.484;2023-09-19T08:16:55;11.53;;;2.90;;
3843;SDS011;1937;51.444;6.484;2023-09-19T08:19:23;11.67;;;2.40;;
3843;SDS011;1937;51.444;6.484;2023-09-19T08:21:54;9.03;;;3.90;;
3843;SDS011;1937;51.444;6.484;2023-09-19T08:24:23;13.73;;;3.73;;
3843;SDS011;1937;51.444;6.484;2023-09-19T08:26:53;9.33;;;2.47;;
3843;SDS011;1937;51.444;6.484;2023-09-19T08:29:20;7.83;;;2.60;;
3843;SDS011;1937;51.444;6.484;2023-09-19T08:31:53;7.30;;;2.30;;
3843;SDS011;1937;51.444;6.484;2023-09-19T08:34:20;5.63;;;2.20;;
3843;SDS011;1937;51.444;6.484;2023-09-19T08:36:48;11.17;;;3.50;;
3843;SDS011;1937;51.444;6.484;2023-09-19T08:39:18;11.00;;;2.70;;
3843;SDS011;1937;51.444;6.484;2023-09-19T08:41:45;6.63;;;2.80;;
3843;SDS011;1937;51.444;6.484;2023-09-19T08:44:11;6.80;;;2.57;;
3843;SDS011;1937;51.444;6.484;2023-09-19T08:46:38;8.40;;;2.60;;
3843;SDS011;1937;51.444;6.484;2023-09-19T08:49:08;9.73;;;3.50;;
3843;SDS011;1937;51.444;6.484;2023-09-19T08:51:41;11.33;;;2.33;;
3843;SDS011;1937;51.444;6.484;2023-09-19T08:54:12;4.47;;;2.30;;
3843;SDS011;1937;51.444;6.484;2023-09-19T08:56:48;23.67;;;3.70;;
3843;SDS011;1937;51.444;6.484;2023-09-19T08:59:16;10.67;;;3.10;;
3843;SDS011;1937;51.444;6.484;2023-09-19T09:01:49;9.00;;;3.13;;
3843;SDS011;1937;51.444;6.484;2023-09-19T09:04:18;8.33;;;2.83;;
3843;SDS011;1937;51.444;6.484;2023-09-19T09:06:45;6.67;;;2.57;;
3843;SDS011;1937;51.444;6.484;2023-09-19T09:09:13;12.80;;;3.30;;
3843;SDS011;1937;51.444;6.484;2023-09-19T09:11:41;4.73;;;2.77;;
3843;SDS011;1937;51.444;6.484;2023-09-19T09:14:08;8.00;;;3.27;;
3843;SDS011;1937;51.444;6.484;2023-09-19T09:16:36;9.60;;;2.80;;
3843;SDS011;1937;51.444;6.484;2023-09-19T09:19:05;11.50;;;3.47;;
3843;SDS011;1937;51.444;6.484;2023-09-19T09:21:32;7.03;;;3.20;;
3843;SDS011;1937;51.444;6.484;2023-09-19T09:26:57;8.83;;;2.70;;
3843;SDS011;1937;51.444;6.484;2023-09-19T09:32:18;11.97;;;3.23;;
3843;SDS011;1937;51.444;6.484;2023-09-19T09:34:47;9.80;;;2.93;;
3843;SDS011;1937;51.444;6.484;2023-09-19T09:37:17;9.87;;;2.80;;
3843;SDS011;1937;51.444;6.484;2023-09-19T09:39:52;10.37;;;3.10;;
3843;SDS011;1937;51.444;6.484;2023-09-19T09:42:32;9.43;;;2.93;;
3843;SDS011;1937;51.444;6.484;2023-09-19T09:45:12;9.33;;;3.00;;
3843;SDS011;1937;51.444;6.484;2023-09-19T09:47:44;8.90;;;2.53;;
3843;SDS011;1937;51.444;6.484;2023-09-19T09:50:24;18.30;;;3.80;;
3843;SDS011;1937;51.444;6.484;2023-09-19T09:52:54;8.57;;;2.77;;
3843;SDS011;1937;51.444;6.484;2023-09-19T09:55:27;13.53;;;2.60;;
3843;SDS011;1937;51.444;6.484;2023-09-19T10:00:52;8.70;;;2.60;;
3843;SDS011;1937;51.444;6.484;2023-09-19T10:03:23;11.93;;;3.00;;
3843;SDS011;1937;51.444;6.484;2023-09-19T10:05:58;13.23;;;2.80;;
3843;SDS011;1937;51.444;6.484;2023-09-19T10:08:34;5.40;;;2.17;;
3843;SDS011;1937;51.444;6.484;2023-09-19T10:11:01;8.37;;;3.00;;
3843;SDS011;1937;51.444;6.484;2023-09-19T10:13:43;5.80;;;2.20;;
3843;SDS011;1937;51.444;6.484;2023-09-19T10:16:12;5.30;;;2.47;;
3843;SDS011;1937;51.444;6.484;2023-09-19T10:18:41;9.40;;;2.57;;
3843;SDS011;1937;51.444;6.484;2023-09-19T10:21:12;13.73;;;3.13;;
3843;SDS011;1937;51.444;6.484;2023-09-19T10:23:39;8.73;;;2.43;;
3843;SDS011;1937;51.444;6.484;2023-09-19T10:26:08;7.73;;;2.50;;
3843;SDS011;1937;51.444;6.484;2023-09-19T10:28:35;8.20;;;2.43;;
3843;SDS011;1937;51.444;6.484;2023-09-19T10:31:04;9.57;;;2.67;;
3843;SDS011;1937;51.444;6.484;2023-09-19T10:33:35;5.73;;;2.90;;
3843;SDS011;1937;51.444;6.484;2023-09-19T10:36:03;4.83;;;2.30;;
3843;SDS011;1937;51.444;6.484;2023-09-19T10:38:31;8.53;;;2.47;;
3843;SDS011;1937;51.444;6.484;2023-09-19T10:41:00;11.10;;;3.20;;
3843;SDS011;1937;51.444;6.484;2023-09-19T10:43:29;10.63;;;2.80;;
3843;SDS011;1937;51.444;6.484;2023-09-19T10:46:00;6.10;;;2.30;;
3843;SDS011;1937;51.444;6.484;2023-09-19T10:48:30;15.23;;;3.37;;
3843;SDS011;1937;51.444;6.484;2023-09-19T10:50:58;5.57;;;2.10;;
3843;SDS011;1937;51.444;6.484;2023-09-19T10:53:43;13.20;;;2.70;;
3843;SDS011;1937;51.444;6.484;2023-09-19T10:56:16;11.77;;;3.50;;
3843;SDS011;1937;51.444;6.484;2023-09-19T10:58:47;10.93;;;3.33;;
3843;SDS011;1937;51.444;6.484;2023-09-19T11:01:14;11.03;;;3.00;;
3843;SDS011;1937;51.444;6.484;2023-09-19T11:03:43;7.73;;;2.70;;
3843;SDS011;1937;51.444;6.484;2023-09-19T11:06:14;4.87;;;1.83;;
3843;SDS011;1937;51.444;6.484;2023-09-19T11:08:56;9.50;;;2.50;;
3843;SDS011;1937;51.444;6.484;2023-09-19T11:11:48;10.33;;;2.70;;
3843;SDS011;1937;51.444;6.484;2023-09-19T11:14:30;9.27;;;2.87;;
3843;SDS011;1937;51.444;6.484;2023-09-19T11:20:21;6.40;;;2.60;;
3843;SDS011;1937;51.444;6.484;2023-09-19T11:23:18;7.87;;;2.73;;
3843;SDS011;1937;51.444;6.484;2023-09-19T11:25:48;6.80;;;2.23;;
3843;SDS011;1937;51.444;6.484;2023-09-19T11:40:11;6.50;;;2.37;;
3843;SDS011;1937;51.444;6.484;2023-09-19T11:42:42;11.40;;;3.00;;
3843;SDS011;1937;51.444;6.484;2023-09-19T11:48:11;3.93;;;2.73;;
3843;SDS011;1937;51.444;6.484;2023-09-19T11:50:40;8.70;;;2.57;;
3843;SDS011;1937;51.444;6.484;2023-09-19T11:53:09;8.23;;;3.33;;
3843;SDS011;1937;51.444;6.484;2023-09-19T11:55:37;12.30;;;3.30;;
3843;SDS011;1937;51.444;6.484;2023-09-19T11:58:05;5.10;;;2.47;;
3843;SDS011;1937;51.444;6.484;2023-09-19T12:00:35;5.40;;;2.50;;
3843;SDS011;1937;51.444;6.484;2023-09-19T12:03:06;7.60;;;3.00;;
3843;SDS011;1937;51.444;6.484;2023-09-19T12:05:36;8.27;;;3.53;;
3843;SDS011;1937;51.444;6.484;2023-09-19T12:08:03;4.07;;;2.30;;
3843;SDS011;1937;51.444;6.484;2023-09-19T12:10:33;4.00;;;2.20;;
3843;SDS011;1937;51.444;6.484;2023-09-19T12:13:01;5.63;;;2.10;;
3843;SDS011;1937;51.444;6.484;2023-09-19T12:15:28;12.67;;;2.93;;
3843;SDS011;1937;51.444;6.484;2023-09-19T12:18:00;8.53;;;3.10;;
3843;SDS011;1937;51.444;6.484;2023-09-19T12:20:40;7.13;;;2.23;;
3843;SDS011;1937;51.444;6.484;2023-09-19T12:23:12;7.67;;;2.60;;
3843;SDS011;1937;51.444;6.484;2023-09-19T12:25:41;7.70;;;3.27;;
3843;SDS011;1937;51.444;6.484;2023-09-19T12:28:13;8.33;;;2.87;;
3843;SDS011;1937;51.444;6.484;2023-09-19T12:30:41;3.33;;;1.70;;
3843;SDS011;1937;51.444;6.484;2023-09-19T12:33:14;9.73;;;2.57;;
3843;SDS011;1937;51.444;6.484;2023-09-19T12:35:44;9.10;;;2.30;;
3843;SDS011;1937;51.444;6.484;2023-09-19T12:38:10;6.07;;;2.20;;
3843;SDS011;1937;51.444;6.484;2023-09-19T12:40:38;9.50;;;2.03;;
3843;SDS011;1937;51.444;6.484;2023-09-19T12:43:07;8.60;;;2.87;;
3843;SDS011;1937;51.444;6.484;2023-09-19T12:45:42;3.90;;;1.40;;
3843;SDS011;1937;51.444;6.484;2023-09-19T12:48:20;6.03;;;2.27;;
3843;SDS011;1937;51.444;6.484;2023-09-19T12:51:00;9.43;;;2.50;;
3843;SDS011;1937;51.444;6.484;2023-09-19T12:53:33;3.63;;;1.50;;
3843;SDS011;1937;51.444;6.484;2023-09-19T12:56:05;6.17;;;2.60;;
3843;SDS011;1937;51.444;6.484;2023-09-19T12:58:33;3.73;;;2.37;;
3843;SDS011;1937;51.444;6.484;2023-09-19T13:01:13;5.17;;;1.63;;
3843;SDS011;1937;51.444;6.484;2023-09-19T13:03:40;9.50;;;2.30;;
3843;SDS011;1937;51.444;6.484;2023-09-19T13:06:07;4.30;;;1.90;;
3843;SDS011;1937;51.444;6.484;2023-09-19T13:08:36;2.93;;;1.37;;
3843;SDS011;1937;51.444;6.484;2023-09-19T13:11:04;3.13;;;1.57;;
3843;SDS011;1937;51.444;6.484;2023-09-19T13:13:34;2.53;;;1.90;;
3843;SDS011;1937;51.444;6.484;2023-09-19T13:16:02;3.23;;;1.63;;
3843;SDS011;1937;51.444;6.484;2023-09-19T13:18:42;3.50;;;2.10;;
3843;SDS011;1937;51.444;6.484;2023-09-19T13:21:11;4.37;;;1.90;;
3843;SDS011;1937;51.444;6.484;2023-09-19T13:23:40;3.20;;;1.47;;
3843;SDS011;1937;51.444;6.484;2023-09-19T13:26:08;3.57;;;1.47;;
3843;SDS011;1937;51.444;6.484;2023-09-19T13:28:35;3.07;;;1.80;;
3843;SDS011;1937;51.444;6.484;2023-09-19T13:31:03;8.50;;;1.80;;
3843;SDS011;1937;51.444;6.484;2023-09-19T13:33:30;5.53;;;1.80;;
3843;SDS011;1937;51.444;6.484;2023-09-19T13:35:59;3.37;;;1.60;;
3843;SDS011;1937;51.444;6.484;2023-09-19T13:38:25;5.07;;;2.13;;
3843;SDS011;1937;51.444;6.484;2023-09-19T13:40:53;7.00;;;1.97;;
3843;SDS011;1937;51.444;6.484;2023-09-19T13:43:21;3.17;;;1.67;;
3843;SDS011;1937;51.444;6.484;2023-09-19T13:45:47;5.50;;;1.67;;
3843;SDS011;1937;51.444;6.484;2023-09-19T13:48:15;1.70;;;1.60;;
3843;SDS011;1937;51.444;6.484;2023-09-19T13:50:47;3.60;;;1.33;;
3843;SDS011;1937;51.444;6.484;2023-09-19T13:53:15;2.97;;;1.53;;
3843;SDS011;1937;51.444;6.484;2023-09-19T13:55:43;4.20;;;1.37;;
3843;SDS011;1937;51.444;6.484;2023-09-19T13:58:09;1.77;;;1.43;;
3843;SDS011;1937;51.444;6.484;2023-09-19T14:00:37;2.83;;;1.40;;
3843;SDS011;1937;51.444;6.484;2023-09-19T14:03:04;4.77;;;1.60;;
3843;SDS011;1937;51.444;6.484;2023-09-19T14:05:31;2.30;;;1.57;;
3843;SDS011;1937;51.444;6.484;2023-09-19T14:07:58;2.40;;;1.40;;
3843;SDS011;1937;51.444;6.484;2023-09-19T14:10:26;5.23;;;1.53;;
3843;SDS011;1937;51.444;6.484;2023-09-19T14:12:55;7.17;;;1.70;;
3843;SDS011;1937;51.444;6.484;2023-09-19T14:15:22;2.13;;;1.50;;
3843;SDS011;1937;51.444;6.484;2023-09-19T14:17:54;6.93;;;1.70;;
3843;SDS011;1937;51.444;6.484;2023-09-19T14:20:22;4.83;;;1.60;;
3843;SDS011;1937;51.444;6.484;2023-09-19T14:22:48;4.83;;;1.43;;
3843;SDS011;1937;51.444;6.484;2023-09-19T14:25:15;1.73;;;1.40;;
3843;SDS011;1937;51.444;6.484;2023-09-19T14:27:43;4.17;;;1.40;;
3843;SDS011;1937;51.444;6.484;2023-09-19T14:30:10;4.17;;;1.60;;
3843;SDS011;1937;51.444;6.484;2023-09-19T14:32:38;5.33;;;1.50;;
3843;SDS011;1937;51.444;6.484;2023-09-19T14:35:06;2.37;;;1.30;;
3843;SDS011;1937;51.444;6.484;2023-09-19T14:37:34;4.10;;;1.40;;
3843;SDS011;1937;51.444;6.484;2023-09-19T14:40:01;5.43;;;1.60;;
3843;SDS011;1937;51.444;6.484;2023-09-19T14:42:32;3.70;;;1.67;;
3843;SDS011;1937;51.444;6.484;2023-09-19T14:45:02;6.23;;;1.60;;
3843;SDS011;1937;51.444;6.484;2023-09-19T14:47:30;4.90;;;1.57;;
3843;SDS011;1937;51.444;6.484;2023-09-19T14:49:58;2.20;;;1.00;;
3843;SDS011;1937;51.444;6.484;2023-09-19T14:52:25;6.37;;;1.80;;
3843;SDS011;1937;51.444;6.484;2023-09-19T14:54:53;2.80;;;1.20;;
3843;SDS011;1937;51.444;6.484;2023-09-19T14:57:20;6.90;;;1.47;;
3843;SDS011;1937;51.444;6.484;2023-09-19T14:59:49;4.73;;;1.80;;
3843;SDS011;1937;51.444;6.484;2023-09-19T15:02:17;1.50;;;1.33;;
3843;SDS011;1937;51.444;6.484;2023-09-19T15:04:44;3.67;;;1.37;;
3843;SDS011;1937;51.444;6.484;2023-09-19T15:07:11;5.13;;;1.50;;
3843;SDS011;1937;51.444;6.484;2023-09-19T15:09:39;4.37;;;1.40;;
3843;SDS011;1937;51.444;6.484;2023-09-19T15:12:06;2.70;;;1.17;;
3843;SDS011;1937;51.444;6.484;2023-09-19T15:14:33;3.53;;;1.27;;
3843;SDS011;1937;51.444;6.484;2023-09-19T15:17:00;1.77;;;1.10;;
3843;SDS011;1937;51.444;6.484;2023-09-19T15:19:31;2.10;;;1.23;;
3843;SDS011;1937;51.444;6.484;2023-09-19T15:21:57;4.43;;;1.23;;
3843;SDS011;1937;51.444;6.484;2023-09-19T15:24:24;2.97;;;1.30;;
3843;SDS011;1937;51.444;6.484;2023-09-19T15:26:51;3.70;;;1.33;;
3843;SDS011;1937;51.444;6.484;2023-09-19T15:29:20;2.70;;;1.27;;
3843;SDS011;1937;51.444;6.484;2023-09-19T15:31:48;7.33;;;2.17;;
3843;SDS011;1937;51.444;6.484;2023-09-19T15:34:14;2.77;;;1.33;;
3843;SDS011;1937;51.444;6.484;2023-09-19T15:36:42;6.20;;;1.30;;
3843;SDS011;1937;51.444;6.484;2023-09-19T15:39:11;4.30;;;1.10;;
3843;SDS011;1937;51.444;6.484;2023-09-19T15:41:39;4.03;;;1.03;;
3843;SDS011;1937;51.444;6.484;2023-09-19T15:44:11;4.43;;;1.40;;
3843;SDS011;1937;51.444;6.484;2023-09-19T15:46:38;4.20;;;1.63;;
3843;SDS011;1937;51.444;6.484;2023-09-19T15:49:06;3.63;;;1.90;;
3843;SDS011;1937;51.444;6.484;2023-09-19T15:51:32;6.10;;;1.40;;
3843;SDS011;1937;51.444;6.484;2023-09-19T15:54:02;3.47;;;1.63;;
3843;SDS011;1937;51.444;6.484;2023-09-19T15:56:33;4.53;;;1.47;;